createdAt,value
2022-11-28T00:02:53.469Z,90.32
2022-11-28T00:08:25.451Z,90.61
2022-11-28T00:13:57.358Z,90.63
2022-11-28T00:19:29.421Z,90.80
2022-11-28T00:25:01.040Z,91.13
2022-11-28T00:30:32.859Z,91.71
2022-11-28T00:36:06.316Z,91.60
2022-11-28T00:41:38.491Z,91.82
2022-11-28T00:47:10.372Z,92.07
2022-11-28T00:52:43.295Z,91.49
2022-11-28T00:58:15.194Z,90.96
2022-11-28T01:03:47.366Z,90.14
2022-11-28T01:09:19.443Z,91.22
2022-11-28T01:14:51.273Z,92.03
2022-11-28T01:20:23.653Z,91.22
2022-11-28T01:25:55.922Z,90.79
2022-11-28T01:31:27.979Z,91.67
2022-11-28T01:36:59.816Z,91.83
2022-11-28T01:42:31.659Z,91.78
2022-11-28T01:53:36.415Z,92.45
2022-11-28T01:59:08.278Z,92.82
2022-11-28T02:10:11.241Z,92.70
2022-11-28T02:15:43.077Z,92.76
2022-11-28T02:21:15.447Z,93.32
2022-11-28T02:26:47.557Z,93.63
2022-11-28T02:32:19.400Z,92.64
2022-11-28T02:37:50.852Z,93.09
2022-11-28T02:43:22.802Z,92.53
2022-11-28T02:48:54.659Z,91.90
2022-11-28T02:54:26.639Z,91.84
2022-11-28T02:59:58.653Z,91.44
2022-11-28T03:05:30.436Z,91.05
2022-11-28T03:11:02.282Z,90.55
2022-11-28T03:16:34.566Z,92.70
2022-11-28T03:22:06.772Z,93.00
2022-11-28T03:27:38.702Z,93.47
2022-11-28T03:38:40.283Z,90.77
2022-11-28T03:44:12.621Z,91.97
2022-11-28T03:49:45.029Z,92.21
2022-11-28T03:55:16.832Z,92.34
2022-11-28T04:06:18.958Z,92.87
2022-11-28T04:11:51.282Z,91.96
2022-11-28T04:17:23.516Z,89.61
2022-11-28T04:22:55.760Z,90.52
2022-11-28T04:28:28.171Z,90.95
2022-11-28T04:34:00.443Z,90.87
2022-11-28T04:39:32.820Z,91.31
2022-11-28T04:45:04.952Z,90.19
2022-11-28T04:50:37.314Z,90.08
2022-11-28T04:56:09.538Z,90.49
2022-11-28T05:01:41.822Z,91.86
2022-11-28T05:12:45.614Z,92.11
2022-11-28T05:18:17.891Z,91.81
2022-11-28T05:23:50.114Z,92.13
2022-11-28T05:29:22.164Z,92.34
2022-11-28T05:34:55.013Z,92.06
2022-11-28T05:40:27.407Z,91.80
2022-11-28T05:45:59.537Z,92.10
2022-11-28T05:51:31.298Z,91.92
2022-11-28T05:57:03.024Z,91.83
2022-11-28T06:02:34.947Z,91.71
2022-11-28T06:08:07.306Z,89.59
2022-11-28T06:13:39.434Z,90.50
2022-11-28T06:19:11.235Z,90.25
2022-11-28T06:24:42.924Z,90.07
2022-11-28T06:30:14.824Z,90.91
2022-11-28T06:35:46.499Z,89.46
2022-11-28T06:41:18.552Z,90.20
2022-11-28T06:46:50.890Z,89.35
2022-11-28T06:52:23.282Z,90.48
2022-11-28T06:57:55.231Z,90.52
2022-11-28T07:03:27.247Z,90.86
2022-11-28T07:08:59.293Z,91.42
2022-11-28T07:14:31.381Z,91.31
2022-11-28T07:25:36.203Z,91.10
2022-11-28T07:31:08.264Z,91.18
2022-11-28T07:36:40.916Z,91.12
2022-11-28T07:42:13.199Z,90.80
2022-11-28T07:47:45.314Z,91.24
2022-11-28T07:53:17.412Z,90.54
2022-11-28T07:58:49.269Z,90.89
2022-11-28T08:04:21.062Z,90.57
2022-11-28T08:09:53.496Z,90.44
2022-11-28T08:15:25.687Z,90.10
2022-11-28T08:20:57.915Z,89.66
2022-11-28T08:26:30.991Z,89.25
2022-11-28T08:32:01.543Z,88.91
2022-11-28T08:37:33.494Z,89.09
2022-11-28T08:43:05.824Z,88.61
2022-11-28T08:48:38.171Z,88.45
2022-11-28T08:54:10.376Z,88.12
2022-11-28T08:59:42.960Z,88.42
2022-11-28T09:05:14.382Z,88.30
2022-11-28T09:10:46.443Z,88.15
2022-11-28T09:16:18.629Z,88.39
2022-11-28T09:21:54.575Z,88.47
2022-11-28T09:27:22.116Z,87.87
2022-11-28T09:32:54.360Z,87.75
2022-11-28T09:38:26.687Z,87.75
2022-11-28T09:40:38.157Z,87.67
2022-11-28T09:46:10.065Z,87.09
2022-11-28T09:51:41.810Z,86.11
2022-11-28T09:57:19.444Z,86.12
2022-11-28T10:02:51.402Z,85.55
2022-11-28T10:08:23.175Z,87.46
2022-11-28T10:14:07.701Z,86.50
2022-11-28T10:19:52.759Z,86.42
2022-11-28T10:24:58.635Z,84.61
2022-11-28T10:30:30.496Z,83.75
2022-11-28T10:36:02.319Z,82.57
2022-11-28T10:41:34.146Z,81.47
2022-11-28T10:47:05.744Z,80.57
2022-11-28T10:52:37.768Z,80.28
2022-11-28T10:58:09.594Z,81.83
2022-11-28T11:03:41.500Z,81.01
2022-11-28T11:09:13.571Z,78.53
2022-11-28T11:14:45.413Z,78.12
2022-11-28T11:20:17.334Z,77.71
2022-11-28T11:25:49.103Z,78.10
2022-11-28T11:36:50.531Z,78.14
2022-11-28T11:42:22.230Z,77.18
2022-11-28T11:47:54.076Z,77.35
2022-11-28T11:53:26.122Z,76.76
2022-11-28T11:58:58.134Z,76.34
2022-11-28T12:04:44.991Z,77.65
2022-11-28T12:10:04.612Z,76.59
2022-11-28T12:15:33.631Z,75.72
2022-11-28T12:21:05.332Z,77.88
2022-11-28T12:26:37.415Z,76.99
2022-11-28T12:32:09.471Z,76.91
2022-11-28T12:38:09.127Z,77.59
2022-11-28T12:43:12.996Z,78.79
2022-11-28T12:48:50.096Z,78.59
2022-11-28T12:54:16.578Z,77.51
2022-11-28T12:59:48.627Z,77.12
2022-11-28T13:05:20.374Z,76.98
2022-11-28T13:10:52.312Z,77.64
2022-11-28T13:16:27.268Z,78.58
2022-11-28T13:21:56.051Z,78.06
2022-11-28T13:27:27.903Z,79.64
2022-11-28T13:32:59.609Z,79.85
2022-11-28T13:38:48.284Z,79.74
2022-11-28T13:44:03.049Z,79.45
2022-11-28T13:49:34.678Z,80.67
2022-11-28T13:55:13.706Z,81.12
2022-11-28T14:00:44.183Z,80.59
2022-11-28T14:06:16.198Z,80.11
2022-11-28T14:11:47.652Z,81.16
2022-11-28T14:17:19.649Z,81.44
2022-11-28T14:22:51.520Z,80.75
2022-11-28T14:28:23.443Z,81.83
2022-11-28T14:33:55.479Z,82.13
2022-11-28T14:39:27.126Z,81.85
2022-11-28T14:45:03.250Z,82.07
2022-11-28T14:56:00.310Z,82.64
2022-11-28T15:01:32.015Z,84.44
2022-11-28T15:12:33.446Z,84.78
2022-11-28T15:18:13.145Z,83.62
2022-11-28T15:23:44.903Z,83.72
2022-11-28T15:29:16.964Z,83.31
2022-11-28T15:34:48.748Z,84.29
2022-11-28T15:40:20.261Z,84.11
2022-11-28T15:45:52.014Z,85.19
2022-11-28T15:51:24.020Z,84.63
2022-11-28T15:56:56.890Z,85.54
2022-11-28T16:02:28.808Z,84.99
2022-11-28T16:08:00.423Z,84.04
2022-11-28T16:13:32.410Z,83.61
2022-11-28T16:24:38.771Z,83.39
2022-11-28T16:30:07.547Z,84.39
2022-11-28T16:35:41.219Z,85.23
2022-11-28T16:41:13.292Z,86.14
2022-11-28T16:46:45.139Z,86.14
2022-11-28T16:52:19.328Z,86.63
2022-11-28T16:57:50.874Z,86.01
2022-11-28T17:03:22.668Z,85.51
2022-11-28T17:08:54.787Z,86.73
2022-11-28T17:14:26.444Z,86.73
2022-11-28T17:19:58.252Z,87.06
2022-11-28T17:25:30.290Z,87.33
2022-11-28T17:31:01.918Z,87.26
2022-11-28T17:36:33.923Z,87.90
2022-11-28T17:42:06.082Z,87.62
2022-11-28T17:47:38.114Z,87.23
2022-11-28T17:53:09.687Z,87.79
2022-11-28T17:58:48.435Z,87.74
2022-11-28T18:04:20.391Z,87.34
2022-11-28T18:09:51.976Z,87.93
2022-11-28T18:15:24.229Z,87.93
2022-11-28T18:20:56.290Z,87.76
2022-11-28T18:26:28.086Z,87.99
2022-11-28T18:31:59.841Z,88.44
2022-11-28T18:43:03.356Z,88.68
2022-11-28T18:48:37.246Z,89.17
2022-11-28T18:54:08.740Z,89.43
2022-11-28T18:59:40.715Z,88.91
2022-11-28T19:05:12.504Z,87.57
2022-11-28T19:10:44.192Z,88.44
2022-11-28T19:16:16.156Z,88.58
2022-11-28T19:21:48.074Z,88.19
2022-11-28T19:32:51.571Z,88.36
2022-11-28T19:38:23.280Z,87.20
2022-11-28T19:43:55.242Z,87.78
2022-11-28T19:51:47.575Z,86.48
2022-11-28T19:57:19.429Z,86.68
2022-11-28T20:08:21.223Z,87.77
2022-11-28T20:19:22.351Z,87.47
2022-11-28T20:24:54.365Z,86.89
2022-11-28T20:36:00.593Z,88.05
2022-11-28T20:41:32.470Z,88.82
2022-11-28T20:52:36.240Z,88.05
2022-11-28T20:58:08.085Z,87.68
2022-11-28T21:03:39.941Z,87.82
2022-11-28T21:09:11.768Z,88.14
2022-11-28T21:14:43.691Z,87.50
2022-11-28T21:20:15.822Z,87.71
2022-11-28T21:25:47.547Z,88.35
2022-11-28T21:33:39.594Z,88.33
2022-11-28T21:39:10.606Z,88.15
2022-11-28T21:44:42.479Z,88.02
2022-11-28T21:50:14.163Z,88.83
2022-11-28T21:55:46.172Z,88.46
2022-11-28T22:01:18.010Z,88.99
2022-11-28T22:06:49.711Z,89.03
2022-11-28T22:12:21.487Z,89.16
2022-11-28T22:17:53.094Z,89.26
2022-11-28T22:23:25.334Z,89.44
2022-11-28T22:28:57.648Z,89.28
2022-11-28T22:34:29.742Z,89.58
2022-11-28T22:40:01.416Z,89.86
2022-11-28T22:45:33.381Z,89.44
2022-11-28T22:51:05.094Z,89.32
2022-11-28T22:56:36.777Z,89.70
2022-11-28T23:02:08.979Z,90.16
2022-11-28T23:13:12.463Z,89.61
2022-11-28T23:18:44.782Z,89.85
2022-11-28T23:24:16.608Z,90.21
2022-11-28T23:29:48.459Z,89.72
2022-11-28T23:35:21.659Z,89.85
2022-11-28T23:40:53.343Z,90.07
2022-11-28T23:46:25.029Z,89.28
2022-11-28T23:51:57.223Z,89.18
2022-11-28T23:57:29.327Z,88.96
